createdAt,value
2019-05-05T00:02:24.846Z,6.23
2019-05-05T00:05:01.113Z,6.80
2019-05-05T00:07:34.632Z,8.20
2019-05-05T00:10:04.578Z,9.10
2019-05-05T00:13:04.512Z,6.03
2019-05-05T00:15:51.654Z,7.67
2019-05-05T00:18:25.238Z,7.50
2019-05-05T00:20:55.236Z,6.77
2019-05-05T00:23:25.138Z,6.97
2019-05-05T00:25:55.306Z,7.57
2019-05-05T00:28:25.020Z,7.50
2019-05-05T00:30:55.355Z,7.03
2019-05-05T00:33:25.025Z,8.70
2019-05-05T00:35:54.742Z,8.90
2019-05-05T00:38:24.871Z,6.77
2019-05-05T00:40:55.035Z,9.93
2019-05-05T00:43:25.277Z,7.47
2019-05-05T00:45:57.918Z,8.83
2019-05-05T00:48:36.595Z,7.50
2019-05-05T00:51:06.008Z,8.53
2019-05-05T00:53:35.264Z,6.80
2019-05-05T00:56:05.128Z,8.33
2019-05-05T00:58:36.355Z,7.70
2019-05-05T01:01:30.398Z,10.87
2019-05-05T01:04:00.703Z,7.70
2019-05-05T01:06:31.265Z,9.13
2019-05-05T01:09:00.531Z,9.27
2019-05-05T01:11:29.901Z,11.03
2019-05-05T01:13:59.243Z,10.30
2019-05-05T01:16:28.521Z,9.03
2019-05-05T01:18:57.791Z,9.07
2019-05-05T01:21:27.007Z,8.23
2019-05-05T01:23:56.365Z,9.93
2019-05-05T01:26:25.650Z,11.03
2019-05-05T01:28:56.300Z,12.43
2019-05-05T01:31:25.747Z,9.77
2019-05-05T01:34:24.371Z,13.30
2019-05-05T01:37:00.429Z,10.30
2019-05-05T01:39:40.096Z,10.00
2019-05-05T01:42:14.308Z,12.83
2019-05-05T01:44:44.760Z,10.43
2019-05-05T01:47:14.894Z,10.33
2019-05-05T01:49:45.272Z,10.63
2019-05-05T01:52:15.077Z,13.77
2019-05-05T01:54:44.710Z,15.40
2019-05-05T01:57:14.942Z,12.33
2019-05-05T01:59:44.993Z,13.20
2019-05-05T02:02:14.761Z,12.27
2019-05-05T02:04:44.890Z,13.93
2019-05-05T02:07:14.672Z,12.23
2019-05-05T02:09:44.925Z,14.07
2019-05-05T02:12:15.813Z,13.20
2019-05-05T02:14:45.535Z,13.20
2019-05-05T02:17:14.828Z,11.37
2019-05-05T02:19:44.449Z,14.93
2019-05-05T02:22:14.671Z,14.83
2019-05-05T02:24:44.592Z,12.83
2019-05-05T02:27:14.709Z,13.67
2019-05-05T02:29:54.834Z,12.83
2019-05-05T02:32:30.947Z,16.50
2019-05-05T02:35:01.314Z,13.50
2019-05-05T02:37:30.654Z,16.07
2019-05-05T02:40:06.239Z,15.73
2019-05-05T02:42:31.833Z,17.27
2019-05-05T02:45:05.370Z,17.23
2019-05-05T02:47:56.196Z,18.17
2019-05-05T02:50:28.504Z,17.83
2019-05-05T02:53:01.340Z,17.73
2019-05-05T02:55:34.675Z,18.37
2019-05-05T02:58:03.874Z,19.13
2019-05-05T03:00:51.126Z,20.63
2019-05-05T03:03:20.642Z,19.87
2019-05-05T03:05:50.448Z,17.50
2019-05-05T03:08:19.724Z,21.33
2019-05-05T03:10:49.187Z,17.83
2019-05-05T03:13:19.968Z,20.87
2019-05-05T03:16:00.532Z,17.97
2019-05-05T03:18:29.816Z,18.23
2019-05-05T03:21:04.380Z,19.97
2019-05-05T03:23:30.795Z,19.60
2019-05-05T03:26:00.159Z,20.77
2019-05-05T03:28:40.556Z,19.57
2019-05-05T03:31:09.894Z,21.67
2019-05-05T03:33:39.704Z,18.37
2019-05-05T03:36:09.099Z,20.20
2019-05-05T03:38:38.659Z,24.20
2019-05-05T03:41:13.610Z,24.40
2019-05-05T03:44:04.550Z,27.20
2019-05-05T03:46:34.760Z,21.90
2019-05-05T03:49:04.809Z,23.77
2019-05-05T03:51:34.682Z,23.13
2019-05-05T03:54:04.424Z,23.80
2019-05-05T03:56:34.857Z,26.03
2019-05-05T03:59:05.022Z,25.93
2019-05-05T04:01:38.663Z,26.03
2019-05-05T04:04:27.050Z,23.23
2019-05-05T04:06:57.003Z,25.20
2019-05-05T04:09:27.720Z,27.93
2019-05-05T04:11:57.037Z,28.87
2019-05-05T04:14:26.278Z,26.37
2019-05-05T04:17:14.097Z,28.10
2019-05-05T04:19:46.831Z,26.80
2019-05-05T04:22:16.166Z,25.70
2019-05-05T04:24:45.584Z,28.47
2019-05-05T04:27:14.919Z,27.77
2019-05-05T04:29:44.254Z,26.00
2019-05-05T04:32:14.244Z,27.90
2019-05-05T04:34:44.041Z,26.80
2019-05-05T04:37:14.948Z,24.20
2019-05-05T04:39:44.651Z,25.53
2019-05-05T04:42:14.217Z,26.73
2019-05-05T04:44:44.983Z,27.10
2019-05-05T04:47:20.278Z,24.33
2019-05-05T04:49:55.825Z,22.90
2019-05-05T04:52:25.824Z,26.10
2019-05-05T04:54:55.724Z,23.23
2019-05-05T04:57:25.330Z,22.53
2019-05-05T04:59:54.604Z,22.33
2019-05-05T05:02:43.645Z,20.77
2019-05-05T05:05:20.011Z,21.47
2019-05-05T05:07:49.303Z,23.53
2019-05-05T05:10:18.652Z,21.93
2019-05-05T05:12:47.840Z,19.67
2019-05-05T05:15:17.126Z,21.37
2019-05-05T05:18:08.798Z,23.93
2019-05-05T05:20:38.127Z,19.80
2019-05-05T05:23:07.478Z,18.23
2019-05-05T05:25:36.797Z,19.50
2019-05-05T05:28:06.097Z,18.67
2019-05-05T05:30:35.335Z,18.63
2019-05-05T05:33:04.673Z,18.83
2019-05-05T05:35:33.929Z,18.60
2019-05-05T05:38:04.677Z,21.37
2019-05-05T05:41:04.132Z,21.10
2019-05-05T05:43:50.627Z,20.23
2019-05-05T05:46:33.410Z,18.83
2019-05-05T05:49:16.745Z,20.67
2019-05-05T05:51:45.970Z,16.93
2019-05-05T05:54:15.310Z,19.10
2019-05-05T05:56:44.967Z,17.63
2019-05-05T05:59:14.239Z,17.87
2019-05-05T06:01:43.784Z,19.37
2019-05-05T06:04:14.487Z,19.00
2019-05-05T06:06:43.977Z,15.70
2019-05-05T06:09:14.815Z,19.10
2019-05-05T06:11:44.537Z,17.77
2019-05-05T06:14:14.579Z,14.27
2019-05-05T06:16:44.640Z,14.60
2019-05-05T06:19:14.195Z,18.60
2019-05-05T06:21:44.020Z,13.37
2019-05-05T06:24:13.677Z,16.53
2019-05-05T06:26:44.514Z,14.30
2019-05-05T06:29:14.591Z,14.33
2019-05-05T06:31:44.782Z,13.73
2019-05-05T06:34:14.260Z,12.67
2019-05-05T06:36:44.479Z,13.20
2019-05-05T06:39:14.035Z,13.10
2019-05-05T06:42:04.358Z,11.70
2019-05-05T06:44:46.503Z,12.53
2019-05-05T06:47:18.227Z,10.93
2019-05-05T06:49:47.528Z,13.17
2019-05-05T06:52:16.771Z,14.47
2019-05-05T06:54:46.045Z,10.10
2019-05-05T06:57:15.362Z,17.57
2019-05-05T06:59:44.712Z,9.87
2019-05-05T07:02:14.560Z,12.87
2019-05-05T07:04:44.689Z,8.33
2019-05-05T07:07:14.576Z,12.73
2019-05-05T07:09:44.386Z,14.80
2019-05-05T07:12:14.031Z,12.53
2019-05-05T07:14:44.553Z,12.80
2019-05-05T07:17:14.235Z,6.93
2019-05-05T07:19:44.982Z,10.87
2019-05-05T07:22:17.527Z,7.70
2019-05-05T07:24:45.436Z,6.63
2019-05-05T07:27:14.801Z,8.00
2019-05-05T07:29:44.067Z,6.57
2019-05-05T07:32:14.232Z,7.67
2019-05-05T07:35:05.440Z,9.43
2019-05-05T07:37:34.701Z,8.97
2019-05-05T07:40:04.895Z,5.43
2019-05-05T07:42:34.203Z,8.97
2019-05-05T07:45:05.461Z,7.23
2019-05-05T07:47:34.625Z,7.07
2019-05-05T07:50:04.440Z,7.10
2019-05-05T07:52:34.383Z,7.20
2019-05-05T07:55:03.984Z,8.03
2019-05-05T07:57:34.144Z,14.10
2019-05-05T08:00:05.381Z,12.10
2019-05-05T08:02:34.941Z,8.73
2019-05-05T08:05:04.785Z,9.53
2019-05-05T08:07:34.177Z,9.43
2019-05-05T08:10:04.546Z,8.03
2019-05-05T08:12:34.265Z,11.30
2019-05-05T08:15:04.356Z,8.10
2019-05-05T08:17:44.818Z,12.37
2019-05-05T08:20:19.423Z,12.30
2019-05-05T08:22:48.840Z,12.63
2019-05-05T08:25:40.278Z,10.93
2019-05-05T08:28:26.190Z,10.77
2019-05-05T08:31:20.690Z,9.37
2019-05-05T08:33:50.117Z,8.60
2019-05-05T08:36:19.546Z,9.67
2019-05-05T08:38:48.848Z,7.43
2019-05-05T08:41:18.254Z,7.40
2019-05-05T08:43:47.589Z,8.07
2019-05-05T08:46:16.979Z,8.17
2019-05-05T08:48:46.384Z,11.00
2019-05-05T08:51:15.592Z,8.90
2019-05-05T08:53:48.228Z,11.53
2019-05-05T08:56:15.972Z,12.50
2019-05-05T08:58:45.310Z,13.33
2019-05-05T09:01:15.037Z,15.40
2019-05-05T09:03:44.539Z,17.27
2019-05-05T09:06:13.959Z,13.20
2019-05-05T09:08:44.120Z,14.93
2019-05-05T09:11:14.132Z,13.37
2019-05-05T09:13:44.609Z,12.93
2019-05-05T09:16:14.555Z,9.97
2019-05-05T09:19:04.152Z,12.40
2019-05-05T09:21:34.573Z,12.17
2019-05-05T09:24:35.259Z,12.30
2019-05-05T09:27:14.197Z,13.33
2019-05-05T09:29:44.046Z,13.57
2019-05-05T09:32:14.028Z,12.93
2019-05-05T09:34:43.708Z,16.70
2019-05-05T09:37:14.366Z,12.67
2019-05-05T09:39:43.901Z,13.23
2019-05-05T09:42:14.579Z,11.30
2019-05-05T09:44:43.989Z,13.00
2019-05-05T09:47:13.827Z,11.23
2019-05-05T09:49:44.509Z,12.63
2019-05-05T09:52:14.189Z,14.73
2019-05-05T09:54:43.958Z,13.83
2019-05-05T09:57:14.482Z,15.97
2019-05-05T09:59:44.349Z,12.97
2019-05-05T10:02:13.928Z,11.70
2019-05-05T10:04:44.086Z,10.73
2019-05-05T10:07:13.891Z,11.90
2019-05-05T10:09:43.888Z,10.00
2019-05-05T10:12:13.307Z,11.90
2019-05-05T10:14:44.732Z,11.30
2019-05-05T10:17:14.192Z,14.53
2019-05-05T10:19:44.009Z,11.80
2019-05-05T10:22:14.806Z,19.27
2019-05-05T10:25:04.144Z,11.90
2019-05-05T10:27:44.612Z,9.73
2019-05-05T10:30:05.021Z,10.17
2019-05-05T10:32:34.340Z,9.40
2019-05-05T10:35:04.611Z,10.33
2019-05-05T10:37:34.665Z,9.13
2019-05-05T10:40:05.056Z,10.60
2019-05-05T10:42:49.750Z,8.10
2019-05-05T10:45:20.015Z,7.53
2019-05-05T10:47:49.455Z,12.20
2019-05-05T10:50:18.817Z,5.13
2019-05-05T10:52:48.170Z,10.03
2019-05-05T10:55:18.641Z,9.93
2019-05-05T10:57:48.003Z,8.33
2019-05-05T11:00:20.061Z,8.93
2019-05-05T11:02:49.404Z,7.47
2019-05-05T11:05:18.780Z,8.47
2019-05-05T11:07:48.038Z,9.07
2019-05-05T11:10:22.056Z,9.47
2019-05-05T11:12:53.470Z,9.33
2019-05-05T11:15:22.356Z,8.53
2019-05-05T11:17:51.768Z,10.10
2019-05-05T11:20:21.139Z,7.83
2019-05-05T11:22:50.416Z,10.33
2019-05-05T11:25:19.700Z,8.77
2019-05-05T11:27:49.143Z,9.03
2019-05-05T11:30:26.780Z,9.87
2019-05-05T11:33:14.275Z,7.60
2019-05-05T11:35:50.820Z,9.73
2019-05-05T11:38:20.101Z,7.57
2019-05-05T11:40:49.453Z,11.70
2019-05-05T11:43:18.797Z,7.10
2019-05-05T11:45:48.155Z,8.57
2019-05-05T11:48:17.477Z,7.83
2019-05-05T11:50:46.772Z,10.47
2019-05-05T11:53:16.115Z,7.40
2019-05-05T11:55:45.799Z,8.47
2019-05-05T11:58:15.182Z,11.07
2019-05-05T12:00:44.449Z,9.27
2019-05-05T12:03:14.497Z,8.50
2019-05-05T12:05:44.363Z,8.27
2019-05-05T12:08:14.690Z,10.57
2019-05-05T12:11:01.299Z,9.63
2019-05-05T12:13:30.571Z,5.17
2019-05-05T12:16:01.338Z,8.83
2019-05-05T12:18:31.005Z,5.47
2019-05-05T12:21:00.340Z,7.57
2019-05-05T12:23:29.606Z,23.37
2019-05-05T12:26:19.248Z,9.13
2019-05-05T12:28:59.915Z,7.03
2019-05-05T12:31:30.035Z,7.20
2019-05-05T12:33:59.316Z,19.73
2019-05-05T12:36:28.708Z,14.07
2019-05-05T12:38:58.088Z,11.63
2019-05-05T12:41:27.461Z,8.50
2019-05-05T12:43:56.835Z,10.53
2019-05-05T12:46:41.661Z,7.80
2019-05-05T12:49:13.735Z,8.30
2019-05-05T12:51:43.549Z,8.17
2019-05-05T12:54:14.658Z,12.13
2019-05-05T12:56:44.654Z,7.93
2019-05-05T12:59:24.863Z,8.47
2019-05-05T13:01:54.741Z,7.13
2019-05-05T13:04:24.656Z,5.63
2019-05-05T13:06:54.197Z,4.50
2019-05-05T13:09:24.420Z,5.67
2019-05-05T13:11:54.286Z,6.30
2019-05-05T13:14:23.731Z,6.83
2019-05-05T13:16:55.948Z,4.83
2019-05-05T13:19:30.044Z,7.73
2019-05-05T13:22:25.523Z,6.40
2019-05-05T13:25:26.137Z,6.67
2019-05-05T13:27:57.464Z,6.47
2019-05-05T13:30:26.920Z,5.60
2019-05-05T13:32:56.114Z,4.50
2019-05-05T13:35:25.550Z,6.70
2019-05-05T13:37:55.070Z,6.60
2019-05-05T13:40:24.450Z,6.47
2019-05-05T13:42:54.709Z,7.17
2019-05-05T13:45:34.275Z,8.17
2019-05-05T13:48:03.777Z,7.03
2019-05-05T13:50:39.024Z,7.20
2019-05-05T13:53:08.267Z,5.57
2019-05-05T13:55:37.530Z,7.87
2019-05-05T13:58:08.745Z,6.70
2019-05-05T14:00:37.873Z,7.13
2019-05-05T14:03:07.204Z,7.50
2019-05-05T14:05:36.491Z,10.63
2019-05-05T14:08:05.959Z,5.20
2019-05-05T14:10:35.250Z,6.90
2019-05-05T14:13:04.592Z,6.67
2019-05-05T14:15:34.200Z,6.93
2019-05-05T14:18:03.855Z,7.90
2019-05-05T14:20:34.514Z,5.53
2019-05-05T14:23:04.111Z,11.37
2019-05-05T14:25:33.489Z,6.27
2019-05-05T14:28:03.790Z,5.97
2019-05-05T14:31:01.361Z,5.50
2019-05-05T14:33:34.926Z,5.57
2019-05-05T14:36:27.248Z,7.10
2019-05-05T14:38:58.156Z,6.60
2019-05-05T14:41:27.505Z,9.20
2019-05-05T14:43:56.861Z,7.77
2019-05-05T14:46:26.285Z,6.80
2019-05-05T14:48:55.571Z,6.83
2019-05-05T14:51:24.880Z,7.30
2019-05-05T14:53:54.382Z,7.07
2019-05-05T14:56:35.585Z,37.57
2019-05-05T14:58:54.715Z,7.50
2019-05-05T15:01:24.788Z,5.70
2019-05-05T15:03:56.280Z,8.97
2019-05-05T15:06:48.130Z,4.83
2019-05-05T15:09:33.596Z,9.27
2019-05-05T15:12:14.322Z,5.07
2019-05-05T15:14:43.981Z,4.87
2019-05-05T15:17:14.131Z,6.97
2019-05-05T15:19:43.844Z,6.37
2019-05-05T15:22:14.992Z,4.47
2019-05-05T15:24:44.236Z,4.00
2019-05-05T15:27:13.597Z,6.20
2019-05-05T15:29:43.649Z,14.77
2019-05-05T15:32:14.908Z,39.77
2019-05-05T15:34:44.217Z,13.07
2019-05-05T15:37:14.459Z,16.60
2019-05-05T15:39:44.219Z,9.57
2019-05-05T15:42:14.549Z,5.70
2019-05-05T15:44:44.033Z,6.77
2019-05-05T15:47:13.413Z,5.70
2019-05-05T15:49:44.101Z,3.70
2019-05-05T15:52:13.791Z,6.27
2019-05-05T15:54:44.620Z,5.37
2019-05-05T15:57:14.845Z,4.47
2019-05-05T15:59:45.108Z,3.87
2019-05-05T16:02:14.348Z,5.77
2019-05-05T16:04:43.662Z,4.93
2019-05-05T16:07:13.789Z,7.17
2019-05-05T16:09:44.351Z,4.33
2019-05-05T16:12:14.502Z,8.07
2019-05-05T16:14:53.713Z,6.13
2019-05-05T16:17:29.941Z,8.73
2019-05-05T16:20:08.843Z,8.73
2019-05-05T16:22:57.441Z,5.20
2019-05-05T16:25:26.698Z,3.97
2019-05-05T16:27:56.047Z,4.10
2019-05-05T16:30:25.396Z,13.80
2019-05-05T16:32:55.178Z,5.70
2019-05-05T16:35:24.657Z,6.03
2019-05-05T16:37:54.012Z,7.30
2019-05-05T16:40:25.789Z,8.13
2019-05-05T16:42:54.424Z,7.77
2019-05-05T16:45:25.753Z,9.43
2019-05-05T16:47:55.101Z,6.43
2019-05-05T16:50:25.063Z,6.57
2019-05-05T16:53:05.132Z,4.43
2019-05-05T16:55:42.473Z,8.60
2019-05-05T16:58:13.772Z,6.40
2019-05-05T17:00:44.150Z,9.27
2019-05-05T17:03:13.683Z,6.57
2019-05-05T17:05:44.152Z,8.67
2019-05-05T17:08:14.070Z,5.87
2019-05-05T17:10:43.602Z,9.60
2019-05-05T17:13:28.454Z,7.43
2019-05-05T17:16:16.923Z,9.90
2019-05-05T17:19:08.397Z,6.53
2019-05-05T17:21:56.641Z,5.80
2019-05-05T17:24:26.010Z,7.13
2019-05-05T17:26:55.480Z,11.33
2019-05-05T17:29:24.848Z,8.83
2019-05-05T17:31:54.238Z,5.13
2019-05-05T17:34:24.710Z,7.07
2019-05-05T17:36:54.265Z,7.20
2019-05-05T17:39:25.497Z,8.53
2019-05-05T17:42:14.244Z,5.60
2019-05-05T17:45:03.703Z,6.33
2019-05-05T17:47:36.860Z,6.90
2019-05-05T17:50:11.982Z,7.70
2019-05-05T17:52:54.731Z,6.83
2019-05-05T17:55:28.383Z,7.77
2019-05-05T17:58:02.358Z,8.90
2019-05-05T18:00:30.807Z,47.73
2019-05-05T18:03:00.172Z,11.63
2019-05-05T18:05:47.103Z,7.27
2019-05-05T18:08:35.443Z,11.07
2019-05-05T18:11:08.775Z,7.13
2019-05-05T18:13:44.821Z,8.07
2019-05-05T18:16:14.729Z,7.10
2019-05-05T18:18:44.491Z,8.57
2019-05-05T18:21:14.329Z,7.80
2019-05-05T18:23:44.006Z,22.73
2019-05-05T18:26:13.785Z,9.10
2019-05-05T18:28:44.732Z,9.33
2019-05-05T18:31:14.324Z,11.03
2019-05-05T18:33:43.745Z,9.87
2019-05-05T18:36:14.146Z,9.00
2019-05-05T18:38:44.469Z,7.60
2019-05-05T18:41:21.081Z,12.07
2019-05-05T18:44:06.351Z,9.00
2019-05-05T18:46:35.674Z,11.43
2019-05-05T18:49:05.052Z,6.90
2019-05-05T18:51:34.750Z,7.90
2019-05-05T18:54:04.357Z,7.73
2019-05-05T18:56:34.790Z,7.67
2019-05-05T18:59:06.545Z,8.43
2019-05-05T19:01:51.413Z,8.93
2019-05-05T19:04:39.670Z,12.40
2019-05-05T19:07:27.959Z,15.27
2019-05-05T19:09:57.263Z,7.73
2019-05-05T19:12:26.559Z,9.40
2019-05-05T19:14:56.010Z,10.03
2019-05-05T19:17:28.426Z,8.37
2019-05-05T19:20:00.130Z,7.83
2019-05-05T19:22:29.385Z,13.40
2019-05-05T19:25:01.506Z,35.20
2019-05-05T19:27:30.833Z,46.10
2019-05-05T19:30:00.166Z,41.07
2019-05-05T19:32:29.435Z,10.63
2019-05-05T19:34:58.708Z,54.80
2019-05-05T19:37:28.082Z,15.57
2019-05-05T19:39:57.469Z,19.20
2019-05-05T19:42:26.840Z,12.10
2019-05-05T19:44:56.263Z,6.80
2019-05-05T19:47:25.719Z,12.07
2019-05-05T19:50:17.305Z,6.27
2019-05-05T19:52:46.831Z,8.07
2019-05-05T19:55:16.177Z,7.73
2019-05-05T19:57:46.006Z,8.77
2019-05-05T20:00:15.457Z,9.97
2019-05-05T20:02:45.142Z,11.90
2019-05-05T20:05:15.495Z,8.57
2019-05-05T20:07:44.770Z,11.67
2019-05-05T20:10:14.804Z,9.20
2019-05-05T20:12:46.810Z,12.90
2019-05-05T20:15:21.293Z,13.10
2019-05-05T20:17:50.950Z,9.80
2019-05-05T20:20:20.424Z,10.90
2019-05-05T20:22:50.101Z,10.33
2019-05-05T20:25:19.450Z,12.53
2019-05-05T20:27:48.862Z,8.47
2019-05-05T20:30:18.352Z,9.57
2019-05-05T20:33:13.646Z,12.50
2019-05-05T20:35:53.857Z,10.43
2019-05-05T20:38:44.005Z,12.73
2019-05-05T20:41:20.547Z,8.27
2019-05-05T20:43:49.943Z,11.43
2019-05-05T20:46:23.678Z,8.57
2019-05-05T20:48:54.479Z,10.03
2019-05-05T20:51:24.360Z,15.17
2019-05-05T20:53:55.827Z,10.30
2019-05-05T20:56:25.186Z,10.33
2019-05-05T20:58:56.282Z,10.37
2019-05-05T21:01:25.769Z,12.70
2019-05-05T21:03:55.032Z,7.77
2019-05-05T21:06:24.671Z,12.10
2019-05-05T21:08:55.831Z,9.20
2019-05-05T21:11:25.408Z,9.83
2019-05-05T21:13:56.691Z,11.33
2019-05-05T21:16:27.425Z,7.97
2019-05-05T21:18:58.916Z,10.70
2019-05-05T21:21:30.900Z,12.60
2019-05-05T21:24:03.949Z,12.77
2019-05-05T21:26:50.531Z,9.30
2019-05-05T21:29:19.941Z,9.23
2019-05-05T21:31:51.779Z,8.23
2019-05-05T21:34:21.143Z,9.20
2019-05-05T21:36:50.503Z,14.67
2019-05-05T21:39:19.859Z,10.90
2019-05-05T21:41:49.132Z,9.40
2019-05-05T21:44:18.421Z,12.43
2019-05-05T21:46:47.764Z,8.40
2019-05-05T21:49:17.549Z,11.70
2019-05-05T21:52:07.353Z,12.77
2019-05-05T21:54:46.587Z,7.93
2019-05-05T21:57:47.461Z,10.70
2019-05-05T22:00:35.711Z,7.80
2019-05-05T22:03:05.424Z,8.43
2019-05-05T22:05:34.753Z,11.80
2019-05-05T22:08:04.703Z,10.90
2019-05-05T22:10:34.438Z,17.70
2019-05-05T22:13:04.866Z,9.60
2019-05-05T22:15:35.836Z,12.07
2019-05-05T22:18:05.388Z,6.83
2019-05-05T22:20:44.230Z,10.10
2019-05-05T22:23:14.552Z,10.43
2019-05-05T22:25:43.909Z,11.70
2019-05-05T22:28:13.272Z,7.47
2019-05-05T22:30:43.698Z,12.10
2019-05-05T22:33:13.742Z,11.77
2019-05-05T22:35:44.259Z,14.47
2019-05-05T22:38:13.880Z,12.20
2019-05-05T22:40:44.053Z,12.60
2019-05-05T22:43:14.490Z,13.93
2019-05-05T22:46:03.565Z,12.13
2019-05-05T22:48:34.521Z,12.63
2019-05-05T22:51:04.573Z,11.53
2019-05-05T22:53:34.894Z,15.73
2019-05-05T22:56:04.195Z,13.20
2019-05-05T22:58:34.868Z,11.90
2019-05-05T23:01:04.606Z,8.90
2019-05-05T23:03:40.593Z,9.37
2019-05-05T23:06:14.125Z,11.70
2019-05-05T23:08:45.261Z,11.37
2019-05-05T23:11:14.578Z,9.30
2019-05-05T23:13:44.694Z,11.20
2019-05-05T23:16:20.653Z,12.37
2019-05-05T23:18:49.969Z,13.40
2019-05-05T23:21:37.154Z,7.70
2019-05-05T23:24:45.242Z,11.77
2019-05-05T23:27:34.360Z,9.37
2019-05-05T23:30:03.723Z,12.73
2019-05-05T23:32:34.168Z,11.23
2019-05-05T23:35:03.728Z,14.57
2019-05-05T23:37:34.327Z,9.57
2019-05-05T23:40:04.027Z,12.10
2019-05-05T23:42:33.830Z,8.73
2019-05-05T23:45:04.415Z,10.53
2019-05-05T23:47:34.487Z,8.57
2019-05-05T23:50:04.806Z,11.43
2019-05-05T23:52:34.997Z,12.33
2019-05-05T23:55:04.787Z,8.33
2019-05-05T23:57:34.160Z,11.17
